createdAt,value
2018-08-25T00:00:16.487Z,57.06
2018-08-25T00:02:44.271Z,57.68
2018-08-25T00:05:11.881Z,56.99
2018-08-25T00:07:39.520Z,58.00
2018-08-25T00:10:08.099Z,57.10
2018-08-25T00:12:35.904Z,57.10
2018-08-25T00:15:03.600Z,56.95
2018-08-25T00:17:31.163Z,56.57
2018-08-25T00:19:58.925Z,56.60
2018-08-25T00:22:26.470Z,57.19
2018-08-25T00:24:53.998Z,57.02
2018-08-25T00:27:21.637Z,57.16
2018-08-25T00:29:49.257Z,57.13
2018-08-25T00:32:16.870Z,56.68
2018-08-25T00:34:44.761Z,57.31
2018-08-25T00:37:12.507Z,57.33
2018-08-25T00:39:40.082Z,56.95
2018-08-25T00:42:07.623Z,57.58
2018-08-25T00:44:35.131Z,57.93
2018-08-25T00:47:02.869Z,58.18
2018-08-25T00:49:30.461Z,58.71
2018-08-25T00:51:58.127Z,57.92
2018-08-25T00:54:25.735Z,58.52
2018-08-25T00:56:53.275Z,58.16
2018-08-25T00:59:20.995Z,58.58
2018-08-25T01:01:48.581Z,58.04
2018-08-25T01:04:16.164Z,58.51
2018-08-25T01:06:43.712Z,58.03
2018-08-25T01:09:11.296Z,57.97
2018-08-25T01:11:38.884Z,57.88
2018-08-25T01:14:06.560Z,57.79
2018-08-25T01:16:34.200Z,57.70
2018-08-25T01:19:01.709Z,57.97
2018-08-25T01:21:29.409Z,58.37
2018-08-25T01:23:56.938Z,58.43
2018-08-25T01:26:24.519Z,58.30
2018-08-25T01:28:52.043Z,58.57
2018-08-25T01:31:19.543Z,58.55
2018-08-25T01:33:47.454Z,58.68
2018-08-25T01:36:15.060Z,58.61
2018-08-25T01:38:42.624Z,58.37
2018-08-25T01:41:10.324Z,58.88
2018-08-25T01:43:37.901Z,58.89
2018-08-25T01:46:05.418Z,58.91
2018-08-25T01:48:32.927Z,58.64
2018-08-25T01:51:00.484Z,58.86
2018-08-25T01:53:28.021Z,58.96
2018-08-25T01:55:55.603Z,59.29
2018-08-25T01:58:23.155Z,59.20
2018-08-25T02:00:50.905Z,59.05
2018-08-25T02:03:18.457Z,59.05
2018-08-25T02:05:46.004Z,59.33
2018-08-25T02:08:13.565Z,59.43
2018-08-25T02:10:41.099Z,59.04
2018-08-25T02:13:08.660Z,59.19
2018-08-25T02:15:36.183Z,59.56
2018-08-25T02:18:03.732Z,60.25
2018-08-25T02:20:31.279Z,60.43
2018-08-25T02:22:58.840Z,59.73
2018-08-25T02:25:26.395Z,59.58
2018-08-25T02:27:53.896Z,59.73
2018-08-25T02:30:21.478Z,59.35
2018-08-25T02:32:49.054Z,59.67
2018-08-25T02:35:16.617Z,59.93
2018-08-25T02:37:44.390Z,60.50
2018-08-25T02:40:11.961Z,59.73
2018-08-25T02:42:39.493Z,59.93
2018-08-25T02:45:07.039Z,59.65
2018-08-25T02:47:34.557Z,61.48
2018-08-25T02:50:02.131Z,62.35
2018-08-25T02:52:29.687Z,63.65
2018-08-25T02:54:57.256Z,63.33
2018-08-25T02:57:24.794Z,63.92
2018-08-25T02:59:52.455Z,63.78
2018-08-25T03:02:19.993Z,66.08
2018-08-25T03:04:47.556Z,64.96
2018-08-25T03:07:15.054Z,64.40
2018-08-25T03:09:42.590Z,64.93
2018-08-25T03:12:10.165Z,63.15
2018-08-25T03:14:37.682Z,64.69
2018-08-25T03:17:05.255Z,63.70
2018-08-25T03:19:32.839Z,65.16
2018-08-25T03:22:00.382Z,63.63
2018-08-25T03:24:27.961Z,64.13
2018-08-25T03:26:55.703Z,64.84
2018-08-25T03:29:23.237Z,65.73
2018-08-25T03:31:50.755Z,67.61
2018-08-25T03:34:18.315Z,70.42
2018-08-25T03:36:45.819Z,71.81
2018-08-25T03:39:13.371Z,73.62
2018-08-25T03:41:41.018Z,74.75
2018-08-25T03:44:08.584Z,75.10
2018-08-25T03:46:36.159Z,77.32
2018-08-25T03:49:03.740Z,77.12
2018-08-25T03:51:31.467Z,77.79
2018-08-25T03:53:59.015Z,79.19
2018-08-25T03:56:27.636Z,78.81
2018-08-25T03:58:55.206Z,78.49
2018-08-25T04:01:22.753Z,79.16
2018-08-25T04:03:50.319Z,79.93
2018-08-25T04:06:17.843Z,79.13
2018-08-25T04:08:45.380Z,79.40
2018-08-25T04:11:12.926Z,79.15
2018-08-25T04:13:40.499Z,79.16
2018-08-25T04:16:08.060Z,78.80
2018-08-25T04:18:35.617Z,80.16
2018-08-25T04:21:03.185Z,81.16
2018-08-25T04:23:30.740Z,81.31
2018-08-25T04:25:58.257Z,81.58
2018-08-25T04:28:25.821Z,80.90
2018-08-25T04:30:53.349Z,81.92
2018-08-25T04:33:20.952Z,82.23
2018-08-25T04:35:48.450Z,81.29
2018-08-25T04:38:15.954Z,81.32
2018-08-25T04:40:43.528Z,82.63
2018-08-25T04:43:11.192Z,82.64
2018-08-25T04:45:52.320Z,82.80
2018-08-25T04:48:19.876Z,81.83
2018-08-25T04:50:47.403Z,81.93
2018-08-25T04:53:14.980Z,81.20
2018-08-25T04:55:42.530Z,81.88
2018-08-25T04:58:10.058Z,82.44
2018-08-25T05:00:37.643Z,83.17
2018-08-25T05:03:05.169Z,82.84
2018-08-25T05:05:32.679Z,81.98
2018-08-25T05:08:00.237Z,84.32
2018-08-25T05:10:27.765Z,85.23
2018-08-25T05:12:55.328Z,85.47
2018-08-25T05:15:22.887Z,86.27
2018-08-25T05:17:50.471Z,85.45
2018-08-25T05:20:18.009Z,84.92
2018-08-25T05:22:45.554Z,85.14
2018-08-25T05:25:13.114Z,85.04
2018-08-25T05:27:40.680Z,84.79
2018-08-25T05:30:08.256Z,85.04
2018-08-25T05:32:35.791Z,85.04
2018-08-25T05:35:09.048Z,84.13
2018-08-25T05:37:36.564Z,84.05
2018-08-25T05:40:04.285Z,84.97
2018-08-25T05:42:31.842Z,84.71
2018-08-25T05:44:59.420Z,84.65
2018-08-25T05:47:27.937Z,84.47
2018-08-25T05:49:55.561Z,84.74
2018-08-25T05:52:23.529Z,85.73
2018-08-25T05:54:51.118Z,85.09
2018-08-25T05:57:18.641Z,84.59
2018-08-25T05:59:46.241Z,85.50
2018-08-25T06:02:14.436Z,84.22
2018-08-25T06:04:41.994Z,84.37
2018-08-25T06:07:09.620Z,84.74
2018-08-25T06:09:37.212Z,84.30
2018-08-25T06:12:04.836Z,84.44
2018-08-25T06:14:32.473Z,84.59
2018-08-25T06:17:00.117Z,84.51
2018-08-25T06:19:27.698Z,84.05
2018-08-25T06:21:55.295Z,84.20
2018-08-25T06:24:22.953Z,85.25
2018-08-25T06:26:50.602Z,85.19
2018-08-25T06:29:18.132Z,84.19
2018-08-25T06:31:45.753Z,84.53
2018-08-25T06:34:14.252Z,84.68
2018-08-25T06:36:41.803Z,84.42
2018-08-25T06:39:09.495Z,83.37
2018-08-25T06:41:37.077Z,83.73
2018-08-25T06:44:04.729Z,83.65
2018-08-25T06:46:32.294Z,83.02
2018-08-25T06:48:59.892Z,83.70
2018-08-25T06:51:27.536Z,83.48
2018-08-25T06:53:55.133Z,83.50
2018-08-25T06:56:22.760Z,83.69
2018-08-25T06:58:50.407Z,83.28
2018-08-25T07:01:17.930Z,83.70
2018-08-25T07:03:45.656Z,83.34
2018-08-25T07:06:13.188Z,83.50
2018-08-25T07:08:40.754Z,82.54
2018-08-25T07:11:08.443Z,82.92
2018-08-25T07:13:36.027Z,83.91
2018-08-25T07:16:03.554Z,83.33
2018-08-25T07:18:31.135Z,83.31
2018-08-25T07:20:58.680Z,82.66
2018-08-25T07:23:26.200Z,82.07
2018-08-25T07:25:53.823Z,82.80
2018-08-25T07:28:21.389Z,82.86
2018-08-25T07:30:50.058Z,82.57
2018-08-25T07:33:17.627Z,81.96
2018-08-25T07:35:45.160Z,82.03
2018-08-25T07:38:12.721Z,82.53
2018-08-25T07:40:40.262Z,81.73
2018-08-25T07:43:07.781Z,81.64
2018-08-25T07:45:35.460Z,81.05
2018-08-25T07:48:03.008Z,81.49
2018-08-25T07:50:30.600Z,81.01
2018-08-25T07:52:58.107Z,81.32
2018-08-25T07:55:25.626Z,80.77
2018-08-25T07:57:53.402Z,80.96
2018-08-25T08:00:20.912Z,79.32
2018-08-25T08:02:48.602Z,79.69
2018-08-25T08:05:16.322Z,79.15
2018-08-25T08:07:43.864Z,79.80
2018-08-25T08:10:11.585Z,79.97
2018-08-25T08:12:39.126Z,79.56
2018-08-25T08:15:08.672Z,78.91
2018-08-25T08:17:37.342Z,79.81
2018-08-25T08:20:06.030Z,77.87
2018-08-25T08:22:33.863Z,78.41
2018-08-25T08:25:01.397Z,77.83
2018-08-25T08:27:28.944Z,77.56
2018-08-25T08:29:56.519Z,77.32
2018-08-25T08:32:24.275Z,77.35
2018-08-25T08:34:51.857Z,77.12
2018-08-25T08:37:19.377Z,75.79
2018-08-25T08:39:46.943Z,75.71
2018-08-25T08:42:14.613Z,75.48
2018-08-25T08:44:42.170Z,75.06
2018-08-25T08:47:09.765Z,75.03
2018-08-25T08:49:46.456Z,75.82
2018-08-25T08:52:04.892Z,75.35
2018-08-25T08:54:32.615Z,75.91
2018-08-25T08:57:00.357Z,75.57
2018-08-25T08:59:28.044Z,75.16
2018-08-25T09:01:55.563Z,74.99
2018-08-25T09:04:23.127Z,74.73
2018-08-25T09:06:50.691Z,75.23
2018-08-25T09:09:18.233Z,76.04
2018-08-25T09:11:45.787Z,77.55
2018-08-25T09:14:13.377Z,77.17
2018-08-25T09:16:40.947Z,77.80
2018-08-25T09:19:08.490Z,77.24
2018-08-25T09:21:35.991Z,76.37
2018-08-25T09:24:03.648Z,76.00
2018-08-25T09:26:31.203Z,75.75
2018-08-25T09:28:58.714Z,75.96
2018-08-25T09:31:27.276Z,74.68
2018-08-25T09:33:54.797Z,73.40
2018-08-25T09:36:22.375Z,72.43
2018-08-25T09:38:49.875Z,72.34
2018-08-25T09:41:17.466Z,72.43
2018-08-25T09:43:45.171Z,71.94
2018-08-25T09:46:12.747Z,72.26
2018-08-25T09:48:40.273Z,71.12
2018-08-25T09:51:07.808Z,70.98
2018-08-25T09:56:09.129Z,70.08
2018-08-25T09:58:36.741Z,68.90
2018-08-25T10:01:04.337Z,67.84
2018-08-25T10:03:31.944Z,68.64
2018-08-25T10:05:59.500Z,67.28
2018-08-25T10:08:27.184Z,67.92
2018-08-25T10:10:54.825Z,67.21
2018-08-25T10:13:22.477Z,66.98
2018-08-25T10:15:50.180Z,67.59
2018-08-25T10:18:17.898Z,67.59
2018-08-25T10:20:45.641Z,67.43
2018-08-25T10:23:13.440Z,66.56
2018-08-25T10:25:41.177Z,67.83
2018-08-25T10:28:08.741Z,65.82
2018-08-25T10:30:36.288Z,65.74
2018-08-25T10:33:03.867Z,65.34
2018-08-25T10:35:31.387Z,66.06
2018-08-25T10:37:59.111Z,62.89
2018-08-25T10:40:26.979Z,63.85
2018-08-25T10:42:54.541Z,64.46
2018-08-25T10:45:22.106Z,65.11
2018-08-25T10:47:49.640Z,64.69
2018-08-25T10:50:17.273Z,64.85
2018-08-25T10:52:44.827Z,64.93
2018-08-25T10:55:12.401Z,64.13
2018-08-25T10:57:40.045Z,64.62
2018-08-25T11:00:07.701Z,64.49
2018-08-25T11:02:35.242Z,63.03
2018-08-25T11:05:02.807Z,62.92
2018-08-25T11:07:30.322Z,63.09
2018-08-25T11:09:57.867Z,62.34
2018-08-25T11:12:25.484Z,62.19
2018-08-25T11:14:53.111Z,61.79
2018-08-25T11:17:20.679Z,63.29
2018-08-25T11:19:48.357Z,63.31
2018-08-25T11:22:15.873Z,64.14
2018-08-25T11:24:43.549Z,64.46
2018-08-25T11:27:11.109Z,65.91
2018-08-25T11:29:38.655Z,66.65
2018-08-25T11:32:06.230Z,67.48
2018-08-25T11:34:33.775Z,66.99
2018-08-25T11:37:01.366Z,64.39
2018-08-25T11:39:28.928Z,64.82
2018-08-25T11:41:56.504Z,64.71
2018-08-25T11:44:24.138Z,66.05
2018-08-25T11:46:51.716Z,63.74
2018-08-25T11:49:19.300Z,67.62
2018-08-25T11:51:46.812Z,67.60
2018-08-25T11:54:14.374Z,68.04
2018-08-25T11:56:41.952Z,67.75
2018-08-25T11:59:09.582Z,67.71
2018-08-25T12:01:37.143Z,67.45
2018-08-25T12:04:04.662Z,68.63
2018-08-25T12:06:32.248Z,66.66
2018-08-25T12:08:59.792Z,64.83
2018-08-25T12:11:27.369Z,66.12
2018-08-25T12:13:54.931Z,64.28
2018-08-25T12:16:22.539Z,64.34
2018-08-25T12:18:50.046Z,63.67
2018-08-25T12:21:17.579Z,61.48
2018-08-25T12:23:45.160Z,62.35
2018-08-25T12:26:12.734Z,61.80
2018-08-25T12:28:40.249Z,61.95
2018-08-25T12:31:07.786Z,61.86
2018-08-25T12:33:35.563Z,61.88
2018-08-25T12:36:03.067Z,61.96
2018-08-25T12:38:30.716Z,61.79
2018-08-25T12:40:58.236Z,61.34
2018-08-25T12:43:25.867Z,60.85
2018-08-25T12:45:53.361Z,60.57
2018-08-25T12:48:20.916Z,60.88
2018-08-25T12:50:48.438Z,59.91
2018-08-25T12:53:16.111Z,59.87
2018-08-25T12:55:43.648Z,59.18
2018-08-25T12:58:11.228Z,58.18
2018-08-25T13:00:38.769Z,57.12
2018-08-25T13:03:06.377Z,57.33
2018-08-25T13:05:33.968Z,58.50
2018-08-25T13:08:01.474Z,59.18
2018-08-25T13:10:29.053Z,59.33
2018-08-25T13:12:56.741Z,59.72
2018-08-25T13:15:24.277Z,61.76
2018-08-25T13:17:51.839Z,62.04
2018-08-25T13:20:19.404Z,61.62
2018-08-25T13:22:46.955Z,64.04
2018-08-25T13:25:14.488Z,64.41
2018-08-25T13:27:42.055Z,65.02
2018-08-25T13:30:09.802Z,65.98
2018-08-25T13:32:37.369Z,65.02
2018-08-25T13:35:04.956Z,65.28
2018-08-25T13:37:32.491Z,64.88
2018-08-25T13:40:00.130Z,64.74
2018-08-25T13:42:27.688Z,64.45
2018-08-25T13:44:55.217Z,64.47
2018-08-25T13:47:23.004Z,64.75
2018-08-25T13:49:50.537Z,64.27
2018-08-25T13:52:18.044Z,65.15
2018-08-25T13:54:45.632Z,63.99
2018-08-25T13:57:13.166Z,63.79
2018-08-25T13:59:40.908Z,64.07
2018-08-25T14:02:08.433Z,62.90
2018-08-25T14:04:36.012Z,63.10
2018-08-25T14:07:03.522Z,62.90
2018-08-25T14:09:31.087Z,63.92
2018-08-25T14:11:58.605Z,63.54
2018-08-25T14:14:26.268Z,63.13
2018-08-25T14:16:53.770Z,63.87
2018-08-25T14:19:21.317Z,64.15
2018-08-25T14:21:48.907Z,64.71
2018-08-25T14:24:16.460Z,67.24
2018-08-25T14:26:44.012Z,70.65
2018-08-25T14:29:11.567Z,72.49
2018-08-25T14:31:39.123Z,71.65
2018-08-25T14:34:07.751Z,78.20
2018-08-25T14:36:35.276Z,76.84
2018-08-25T14:39:02.903Z,77.97
2018-08-25T14:41:30.519Z,76.32
2018-08-25T14:43:58.058Z,76.60
2018-08-25T14:46:25.559Z,75.48
2018-08-25T14:48:53.063Z,76.07
2018-08-25T14:51:20.628Z,75.60
2018-08-25T14:53:48.139Z,77.41
2018-08-25T14:56:15.789Z,76.04
2018-08-25T14:58:43.333Z,77.30
2018-08-25T15:01:10.965Z,76.98
2018-08-25T15:03:38.567Z,73.45
2018-08-25T15:06:06.122Z,75.29
2018-08-25T15:08:33.689Z,77.19
2018-08-25T15:11:01.195Z,74.62
2018-08-25T15:13:29.080Z,75.15
2018-08-25T15:15:56.539Z,74.12
2018-08-25T15:18:24.105Z,74.11
2018-08-25T15:20:51.682Z,75.47
2018-08-25T15:23:19.216Z,74.64
2018-08-25T15:25:46.754Z,74.39
2018-08-25T15:28:14.362Z,73.45
2018-08-25T15:30:41.950Z,71.98
2018-08-25T15:33:09.492Z,71.83
2018-08-25T15:35:37.046Z,73.59
2018-08-25T15:38:04.595Z,72.33
2018-08-25T15:40:32.143Z,71.76
2018-08-25T15:42:59.661Z,71.52
2018-08-25T15:45:27.226Z,72.73
2018-08-25T15:47:54.741Z,72.42
2018-08-25T15:50:22.305Z,71.54
2018-08-25T15:52:49.833Z,72.33
2018-08-25T15:55:17.486Z,72.61
2018-08-25T15:57:45.034Z,70.77
2018-08-25T16:00:12.586Z,70.83
2018-08-25T16:02:40.123Z,70.99
2018-08-25T16:05:07.688Z,70.86
2018-08-25T16:07:35.217Z,71.00
2018-08-25T16:10:02.998Z,70.74
2018-08-25T16:12:30.688Z,71.17
2018-08-25T16:14:58.190Z,70.58
2018-08-25T16:17:25.753Z,69.71
2018-08-25T16:19:53.576Z,69.94
2018-08-25T16:22:21.043Z,70.44
2018-08-25T16:24:48.561Z,69.94
2018-08-25T16:27:16.108Z,70.12
2018-08-25T16:29:43.699Z,70.07
2018-08-25T16:32:11.241Z,70.00
2018-08-25T16:34:38.779Z,70.63
2018-08-25T16:37:06.348Z,69.40
2018-08-25T16:39:33.920Z,69.49
2018-08-25T16:42:01.533Z,68.09
2018-08-25T16:44:29.067Z,67.34
2018-08-25T16:46:56.812Z,65.22
2018-08-25T16:49:24.437Z,62.57
2018-08-25T16:51:52.039Z,61.20
2018-08-25T16:54:19.581Z,59.89
2018-08-25T16:56:47.317Z,60.75
2018-08-25T16:59:14.899Z,60.13
2018-08-25T17:01:42.533Z,61.16
2018-08-25T17:04:10.066Z,60.56
2018-08-25T17:06:37.638Z,60.26
2018-08-25T17:09:05.161Z,58.95
2018-08-25T17:11:32.752Z,60.36
2018-08-25T17:14:00.417Z,60.39
2018-08-25T17:16:27.954Z,60.80
2018-08-25T17:18:55.544Z,61.40
2018-08-25T17:21:23.121Z,59.26
2018-08-25T17:23:50.673Z,60.77
2018-08-25T17:26:18.246Z,59.70
2018-08-25T17:28:45.836Z,59.91
2018-08-25T17:31:15.473Z,60.55
2018-08-25T17:33:43.042Z,60.53
2018-08-25T17:36:10.611Z,61.38
2018-08-25T17:38:38.412Z,60.80
2018-08-25T17:41:06.032Z,61.01
2018-08-25T17:43:33.660Z,60.99
2018-08-25T17:46:01.457Z,61.51
2018-08-25T17:48:30.053Z,61.42
2018-08-25T17:50:58.234Z,62.12
2018-08-25T17:53:25.751Z,61.40
2018-08-25T17:55:53.303Z,62.07
2018-08-25T17:58:20.876Z,62.65
2018-08-25T18:00:48.631Z,63.18
2018-08-25T18:03:16.222Z,62.22
2018-08-25T18:05:43.759Z,62.21
2018-08-25T18:08:11.338Z,62.48
2018-08-25T18:10:39.069Z,62.42
2018-08-25T18:13:06.645Z,63.90
2018-08-25T18:15:34.173Z,64.23
2018-08-25T18:18:01.740Z,63.91
2018-08-25T18:20:29.252Z,64.00
2018-08-25T18:22:56.814Z,64.15
2018-08-25T18:25:24.355Z,63.27
2018-08-25T18:27:51.948Z,64.23
2018-08-25T18:30:19.514Z,63.74
2018-08-25T18:32:47.082Z,63.01
2018-08-25T18:35:14.652Z,63.41
2018-08-25T18:37:42.181Z,62.74
2018-08-25T18:40:09.794Z,63.18
2018-08-25T18:42:37.346Z,64.18
2018-08-25T18:45:04.909Z,63.80
2018-08-25T18:47:32.419Z,64.69
2018-08-25T18:49:59.958Z,65.54
2018-08-25T18:52:27.665Z,65.18
2018-08-25T18:54:55.281Z,64.64
2018-08-25T18:57:22.842Z,65.21
2018-08-25T18:59:50.394Z,64.41
2018-08-25T19:02:18.305Z,64.25
2018-08-25T19:04:45.739Z,62.69
2018-08-25T19:07:13.262Z,62.10
2018-08-25T19:09:40.833Z,61.45
2018-08-25T19:12:08.578Z,62.40
2018-08-25T19:14:36.101Z,62.63
2018-08-25T19:17:03.661Z,61.09
2018-08-25T19:19:31.189Z,61.43
2018-08-25T19:21:58.762Z,61.97
2018-08-25T19:24:26.478Z,62.49
2018-08-25T19:26:53.970Z,65.26
2018-08-25T19:29:21.523Z,65.74
2018-08-25T19:31:49.100Z,63.74
2018-08-25T19:34:16.606Z,63.99
2018-08-25T19:36:44.167Z,63.12
2018-08-25T19:39:11.707Z,63.58
2018-08-25T19:41:39.396Z,64.07
2018-08-25T19:44:07.004Z,63.31
2018-08-25T19:46:34.511Z,63.83
2018-08-25T19:49:02.022Z,64.00
2018-08-25T19:51:29.802Z,64.07
2018-08-25T19:53:57.380Z,64.59
2018-08-25T19:56:24.937Z,64.47
2018-08-25T19:58:52.500Z,64.62
2018-08-25T20:01:20.006Z,63.63
2018-08-25T20:03:47.591Z,63.56
2018-08-25T20:06:15.135Z,63.22
2018-08-25T20:08:42.700Z,64.49
2018-08-25T20:11:10.290Z,64.41
2018-08-25T20:13:37.891Z,64.34
2018-08-25T20:16:05.403Z,63.82
2018-08-25T20:18:32.970Z,64.58
2018-08-25T20:21:00.557Z,64.51
2018-08-25T20:23:28.105Z,63.71
2018-08-25T20:25:55.629Z,64.09
2018-08-25T20:28:23.183Z,63.24
2018-08-25T20:30:50.780Z,64.71
2018-08-25T20:33:18.459Z,65.12
2018-08-25T20:35:46.115Z,65.39
2018-08-25T20:38:13.651Z,65.05
2018-08-25T20:40:41.219Z,65.40
2018-08-25T20:43:08.731Z,65.21
2018-08-25T20:45:36.461Z,65.47
2018-08-25T20:48:03.969Z,65.01
2018-08-25T20:50:31.561Z,64.69
2018-08-25T20:52:59.075Z,64.54
2018-08-25T20:55:26.823Z,65.79
2018-08-25T20:57:54.504Z,64.96
2018-08-25T21:00:22.153Z,65.37
2018-08-25T21:02:49.963Z,65.48
2018-08-25T21:05:17.529Z,65.74
2018-08-25T21:07:45.063Z,65.67
2018-08-25T21:10:12.804Z,66.03
2018-08-25T21:12:40.638Z,67.18
2018-08-25T21:15:08.161Z,66.13
2018-08-25T21:17:35.710Z,66.01
2018-08-25T21:20:03.325Z,65.89
2018-08-25T21:22:31.013Z,66.99
2018-08-25T21:24:58.674Z,66.48
2018-08-25T21:27:26.242Z,66.04
2018-08-25T21:29:53.996Z,65.48
2018-08-25T21:32:21.518Z,65.89
2018-08-25T21:34:49.063Z,65.97
2018-08-25T21:37:16.633Z,65.89
2018-08-25T21:39:44.149Z,66.48
2018-08-25T21:42:11.686Z,67.66
2018-08-25T21:44:39.202Z,67.67
2018-08-25T21:47:06.750Z,68.25
2018-08-25T21:49:34.317Z,68.76
2018-08-25T21:52:01.881Z,69.52
2018-08-25T21:54:29.428Z,69.91
2018-08-25T21:56:57.101Z,69.80
2018-08-25T21:59:24.707Z,69.49
2018-08-25T22:01:52.224Z,69.96
2018-08-25T22:04:19.836Z,69.93
2018-08-25T22:06:47.457Z,69.13
2018-08-25T22:09:15.180Z,69.58
2018-08-25T22:11:42.727Z,68.76
2018-08-25T22:14:10.293Z,68.98
2018-08-25T22:16:37.879Z,70.21
2018-08-25T22:19:05.423Z,69.63
2018-08-25T22:21:33.125Z,69.71
2018-08-25T22:24:00.652Z,68.99
2018-08-25T22:26:28.248Z,69.72
2018-08-25T22:28:55.781Z,69.11
2018-08-25T22:31:23.396Z,69.02
2018-08-25T22:33:50.940Z,68.57
2018-08-25T22:36:18.479Z,68.84
2018-08-25T22:38:45.996Z,69.67
2018-08-25T22:41:13.648Z,69.27
2018-08-25T22:43:41.151Z,68.65
2018-08-25T22:46:08.662Z,69.85
2018-08-25T22:48:36.222Z,69.44
2018-08-25T22:51:03.749Z,69.53
2018-08-25T22:53:31.271Z,69.61
2018-08-25T22:55:58.844Z,69.35
2018-08-25T22:58:26.384Z,69.26
2018-08-25T23:00:53.943Z,69.71
2018-08-25T23:03:21.514Z,69.63
2018-08-25T23:05:49.203Z,70.06
2018-08-25T23:08:17.171Z,70.55
2018-08-25T23:10:44.754Z,69.85
2018-08-25T23:13:12.464Z,70.85
2018-08-25T23:15:40.198Z,70.11
2018-08-25T23:18:07.883Z,70.88
2018-08-25T23:20:35.465Z,70.94
2018-08-25T23:23:03.299Z,71.09
2018-08-25T23:25:30.840Z,71.81
2018-08-25T23:27:58.603Z,72.45
2018-08-25T23:30:26.269Z,72.70
2018-08-25T23:32:53.847Z,72.21
2018-08-25T23:35:21.549Z,72.36
2018-08-25T23:37:49.265Z,73.02
2018-08-25T23:40:17.022Z,73.34
2018-08-25T23:42:44.583Z,73.54
2018-08-25T23:45:12.237Z,73.98
2018-08-25T23:47:39.839Z,74.00
2018-08-25T23:50:07.500Z,74.40
2018-08-25T23:52:35.097Z,74.50
2018-08-25T23:55:02.780Z,74.79
2018-08-25T23:57:30.357Z,74.91
2018-08-25T23:59:58.109Z,74.03
